sensor_id;sensor_type;location;lat;lon;timestamp;P1;durP1;ratioP1;P2;durP2;ratioP2
40449;SDS011;41787;53.570;10.032;2022-07-23T00:02:05;4.10;;;0.90;;
40449;SDS011;41787;53.570;10.032;2022-07-23T00:04:31;3.97;;;1.00;;
40449;SDS011;41787;53.570;10.032;2022-07-23T00:06:57;3.10;;;0.82;;
40449;SDS011;41787;53.570;10.032;2022-07-23T00:09:23;1.40;;;0.70;;
40449;SDS011;41787;53.570;10.032;2022-07-23T00:11:49;2.83;;;1.00;;
40449;SDS011;41787;53.570;10.032;2022-07-23T00:14:15;4.97;;;0.90;;
40449;SDS011;41787;53.570;10.032;2022-07-23T00:16:41;3.15;;;0.80;;
40449;SDS011;41787;53.570;10.032;2022-07-23T00:19:07;5.95;;;1.00;;
40449;SDS011;41787;53.570;10.032;2022-07-23T00:21:33;4.18;;;0.90;;
40449;SDS011;41787;53.570;10.032;2022-07-23T00:23:59;2.85;;;0.50;;
40449;SDS011;41787;53.570;10.032;2022-07-23T00:26:25;0.98;;;0.43;;
40449;SDS011;41787;53.570;10.032;2022-07-23T00:28:51;4.22;;;1.10;;
40449;SDS011;41787;53.570;10.032;2022-07-23T00:31:17;4.55;;;0.70;;
40449;SDS011;41787;53.570;10.032;2022-07-23T00:33:43;1.35;;;0.55;;
40449;SDS011;41787;53.570;10.032;2022-07-23T00:36:09;2.88;;;0.60;;
40449;SDS011;41787;53.570;10.032;2022-07-23T00:38:35;3.13;;;0.70;;
40449;SDS011;41787;53.570;10.032;2022-07-23T00:41:01;1.38;;;0.50;;
40449;SDS011;41787;53.570;10.032;2022-07-23T00:43:26;2.95;;;0.50;;
40449;SDS011;41787;53.570;10.032;2022-07-23T00:45:52;4.13;;;0.90;;
40449;SDS011;41787;53.570;10.032;2022-07-23T00:48:18;4.72;;;0.60;;
40449;SDS011;41787;53.570;10.032;2022-07-23T00:50:44;2.83;;;0.68;;
40449;SDS011;41787;53.570;10.032;2022-07-23T00:53:10;5.65;;;1.00;;
40449;SDS011;41787;53.570;10.032;2022-07-23T00:55:37;3.00;;;0.73;;
40449;SDS011;41787;53.570;10.032;2022-07-23T00:58:03;3.58;;;0.90;;
40449;SDS011;41787;53.570;10.032;2022-07-23T01:00:30;2.55;;;0.80;;
40449;SDS011;41787;53.570;10.032;2022-07-23T01:02:56;3.30;;;0.80;;
40449;SDS011;41787;53.570;10.032;2022-07-23T01:05:22;3.80;;;1.08;;
40449;SDS011;41787;53.570;10.032;2022-07-23T01:07:51;4.47;;;1.00;;
40449;SDS011;41787;53.570;10.032;2022-07-23T01:10:17;2.88;;;0.90;;
40449;SDS011;41787;53.570;10.032;2022-07-23T01:12:56;2.58;;;0.77;;
40449;SDS011;41787;53.570;10.032;2022-07-23T01:15:22;5.00;;;1.25;;
40449;SDS011;41787;53.570;10.032;2022-07-23T01:17:48;4.35;;;0.95;;
40449;SDS011;41787;53.570;10.032;2022-07-23T01:20:14;7.38;;;1.73;;
40449;SDS011;41787;53.570;10.032;2022-07-23T01:22:40;2.60;;;0.90;;
40449;SDS011;41787;53.570;10.032;2022-07-23T01:25:06;4.75;;;0.77;;
40449;SDS011;41787;53.570;10.032;2022-07-23T01:27:32;5.13;;;0.80;;
40449;SDS011;41787;53.570;10.032;2022-07-23T01:29:59;6.35;;;0.90;;
40449;SDS011;41787;53.570;10.032;2022-07-23T01:32:25;2.78;;;0.68;;
40449;SDS011;41787;53.570;10.032;2022-07-23T01:34:51;4.82;;;0.90;;
40449;SDS011;41787;53.570;10.032;2022-07-23T01:37:17;3.85;;;0.88;;
40449;SDS011;41787;53.570;10.032;2022-07-23T01:39:43;2.65;;;0.73;;
40449;SDS011;41787;53.570;10.032;2022-07-23T01:42:09;3.97;;;1.02;;
40449;SDS011;41787;53.570;10.032;2022-07-23T01:44:35;2.58;;;0.77;;
40449;SDS011;41787;53.570;10.032;2022-07-23T01:47:01;2.78;;;0.63;;
40449;SDS011;41787;53.570;10.032;2022-07-23T01:49:27;3.58;;;1.10;;
40449;SDS011;41787;53.570;10.032;2022-07-23T01:51:53;3.50;;;0.60;;
40449;SDS011;41787;53.570;10.032;2022-07-23T01:54:29;4.00;;;0.85;;
40449;SDS011;41787;53.570;10.032;2022-07-23T01:56:55;2.45;;;0.70;;
40449;SDS011;41787;53.570;10.032;2022-07-23T01:59:21;4.13;;;0.70;;
40449;SDS011;41787;53.570;10.032;2022-07-23T02:01:48;1.90;;;0.50;;
40449;SDS011;41787;53.570;10.032;2022-07-23T02:04:15;3.13;;;0.60;;
40449;SDS011;41787;53.570;10.032;2022-07-23T02:06:41;2.53;;;0.82;;
40449;SDS011;41787;53.570;10.032;2022-07-23T02:09:07;2.75;;;0.80;;
40449;SDS011;41787;53.570;10.032;2022-07-23T02:11:33;7.93;;;1.13;;
40449;SDS011;41787;53.570;10.032;2022-07-23T02:13:59;4.43;;;0.75;;
40449;SDS011;41787;53.570;10.032;2022-07-23T02:16:25;6.18;;;0.50;;
40449;SDS011;41787;53.570;10.032;2022-07-23T02:18:51;2.03;;;0.50;;
40449;SDS011;41787;53.570;10.032;2022-07-23T02:21:17;1.42;;;0.47;;
40449;SDS011;41787;53.570;10.032;2022-07-23T02:23:43;3.75;;;0.80;;
40449;SDS011;41787;53.570;10.032;2022-07-23T02:26:09;4.82;;;1.17;;
40449;SDS011;41787;53.570;10.032;2022-07-23T02:28:35;5.50;;;0.60;;
40449;SDS011;41787;53.570;10.032;2022-07-23T02:31:01;3.25;;;0.50;;
40449;SDS011;41787;53.570;10.032;2022-07-23T02:33:26;4.97;;;0.75;;
40449;SDS011;41787;53.570;10.032;2022-07-23T02:35:52;4.93;;;0.60;;
40449;SDS011;41787;53.570;10.032;2022-07-23T02:38:18;3.80;;;0.75;;
40449;SDS011;41787;53.570;10.032;2022-07-23T02:40:44;4.63;;;0.60;;
40449;SDS011;41787;53.570;10.032;2022-07-23T02:43:10;3.92;;;0.65;;
40449;SDS011;41787;53.570;10.032;2022-07-23T02:45:36;6.88;;;0.98;;
40449;SDS011;41787;53.570;10.032;2022-07-23T02:48:02;2.13;;;0.70;;
40449;SDS011;41787;53.570;10.032;2022-07-23T02:50:28;4.25;;;0.63;;
40449;SDS011;41787;53.570;10.032;2022-07-23T02:52:54;1.88;;;0.65;;
40449;SDS011;41787;53.570;10.032;2022-07-23T02:55:20;4.68;;;0.88;;
40449;SDS011;41787;53.570;10.032;2022-07-23T02:57:46;3.53;;;0.60;;
40449;SDS011;41787;53.570;10.032;2022-07-23T03:00:12;1.40;;;0.63;;
40449;SDS011;41787;53.570;10.032;2022-07-23T03:02:38;3.30;;;0.60;;
40449;SDS011;41787;53.570;10.032;2022-07-23T03:05:04;7.00;;;1.35;;
40449;SDS011;41787;53.570;10.032;2022-07-23T03:07:30;5.28;;;1.10;;
40449;SDS011;41787;53.570;10.032;2022-07-23T03:09:56;3.78;;;0.75;;
40449;SDS011;41787;53.570;10.032;2022-07-23T03:12:22;4.28;;;0.98;;
40449;SDS011;41787;53.570;10.032;2022-07-23T03:14:48;3.50;;;0.60;;
40449;SDS011;41787;53.570;10.032;2022-07-23T03:17:14;3.10;;;0.80;;
40449;SDS011;41787;53.570;10.032;2022-07-23T03:19:40;3.50;;;0.80;;
40449;SDS011;41787;53.570;10.032;2022-07-23T03:22:06;4.05;;;0.70;;
40449;SDS011;41787;53.570;10.032;2022-07-23T03:24:32;8.60;;;0.75;;
40449;SDS011;41787;53.570;10.032;2022-07-23T03:27:17;5.03;;;1.13;;
40449;SDS011;41787;53.570;10.032;2022-07-23T03:29:43;6.20;;;1.13;;
40449;SDS011;41787;53.570;10.032;2022-07-23T03:32:09;3.97;;;0.60;;
40449;SDS011;41787;53.570;10.032;2022-07-23T03:34:35;3.53;;;0.80;;
40449;SDS011;41787;53.570;10.032;2022-07-23T03:37:01;3.78;;;0.70;;
40449;SDS011;41787;53.570;10.032;2022-07-23T03:39:27;2.53;;;0.85;;
40449;SDS011;41787;53.570;10.032;2022-07-23T03:41:53;2.70;;;0.90;;
40449;SDS011;41787;53.570;10.032;2022-07-23T03:44:19;5.40;;;0.80;;
40449;SDS011;41787;53.570;10.032;2022-07-23T03:46:45;1.85;;;0.70;;
40449;SDS011;41787;53.570;10.032;2022-07-23T03:49:11;3.13;;;0.93;;
40449;SDS011;41787;53.570;10.032;2022-07-23T03:51:37;3.90;;;1.00;;
40449;SDS011;41787;53.570;10.032;2022-07-23T03:54:03;2.72;;;0.63;;
40449;SDS011;41787;53.570;10.032;2022-07-23T03:56:29;2.88;;;0.80;;
40449;SDS011;41787;53.570;10.032;2022-07-23T03:58:54;3.00;;;1.00;;
40449;SDS011;41787;53.570;10.032;2022-07-23T04:01:20;6.32;;;1.17;;
40449;SDS011;41787;53.570;10.032;2022-07-23T04:03:46;3.35;;;0.95;;
40449;SDS011;41787;53.570;10.032;2022-07-23T04:06:12;3.35;;;1.10;;
40449;SDS011;41787;53.570;10.032;2022-07-23T04:08:38;4.20;;;0.90;;
40449;SDS011;41787;53.570;10.032;2022-07-23T04:11:04;2.45;;;0.90;;
40449;SDS011;41787;53.570;10.032;2022-07-23T04:13:30;5.68;;;0.90;;
40449;SDS011;41787;53.570;10.032;2022-07-23T04:15:57;3.60;;;0.85;;
40449;SDS011;41787;53.570;10.032;2022-07-23T04:18:23;3.63;;;0.93;;
40449;SDS011;41787;53.570;10.032;2022-07-23T04:20:52;3.22;;;1.15;;
40449;SDS011;41787;53.570;10.032;2022-07-23T04:23:19;2.80;;;0.63;;
40449;SDS011;41787;53.570;10.032;2022-07-23T04:25:44;5.65;;;1.00;;
40449;SDS011;41787;53.570;10.032;2022-07-23T04:28:10;1.88;;;0.80;;
40449;SDS011;41787;53.570;10.032;2022-07-23T04:30:36;2.10;;;0.80;;
40449;SDS011;41787;53.570;10.032;2022-07-23T04:33:02;4.22;;;0.80;;
40449;SDS011;41787;53.570;10.032;2022-07-23T04:35:31;4.00;;;1.02;;
40449;SDS011;41787;53.570;10.032;2022-07-23T04:37:57;5.28;;;0.80;;
40449;SDS011;41787;53.570;10.032;2022-07-23T04:40:24;7.63;;;1.08;;
40449;SDS011;41787;53.570;10.032;2022-07-23T04:42:50;4.03;;;1.02;;
40449;SDS011;41787;53.570;10.032;2022-07-23T04:45:16;6.28;;;1.10;;
40449;SDS011;41787;53.570;10.032;2022-07-23T04:47:42;6.05;;;1.00;;
40449;SDS011;41787;53.570;10.032;2022-07-23T04:50:08;4.82;;;1.42;;
40449;SDS011;41787;53.570;10.032;2022-07-23T04:52:34;4.43;;;1.65;;
40449;SDS011;41787;53.570;10.032;2022-07-23T04:54:59;4.82;;;1.00;;
40449;SDS011;41787;53.570;10.032;2022-07-23T04:57:25;3.90;;;1.13;;
40449;SDS011;41787;53.570;10.032;2022-07-23T04:59:51;6.82;;;1.20;;
40449;SDS011;41787;53.570;10.032;2022-07-23T05:02:17;4.38;;;1.33;;
40449;SDS011;41787;53.570;10.032;2022-07-23T05:04:43;3.42;;;1.33;;
40449;SDS011;41787;53.570;10.032;2022-07-23T05:07:09;8.30;;;1.80;;
40449;SDS011;41787;53.570;10.032;2022-07-23T05:09:35;2.13;;;1.23;;
40449;SDS011;41787;53.570;10.032;2022-07-23T05:12:01;5.55;;;1.23;;
40449;SDS011;41787;53.570;10.032;2022-07-23T05:14:27;2.97;;;1.30;;
40449;SDS011;41787;53.570;10.032;2022-07-23T05:16:53;5.40;;;1.13;;
40449;SDS011;41787;53.570;10.032;2022-07-23T05:19:19;3.05;;;1.08;;
40449;SDS011;41787;53.570;10.032;2022-07-23T05:21:45;5.18;;;1.20;;
40449;SDS011;41787;53.570;10.032;2022-07-23T05:24:11;1.92;;;0.80;;
40449;SDS011;41787;53.570;10.032;2022-07-23T05:26:37;1.98;;;1.08;;
40449;SDS011;41787;53.570;10.032;2022-07-23T05:29:03;2.20;;;0.80;;
40449;SDS011;41787;53.570;10.032;2022-07-23T05:31:29;3.22;;;0.88;;
40449;SDS011;41787;53.570;10.032;2022-07-23T05:33:55;2.13;;;0.73;;
40449;SDS011;41787;53.570;10.032;2022-07-23T05:36:21;3.10;;;0.80;;
40449;SDS011;41787;53.570;10.032;2022-07-23T05:38:47;2.85;;;0.80;;
40449;SDS011;41787;53.570;10.032;2022-07-23T05:41:13;3.22;;;0.73;;
40449;SDS011;41787;53.570;10.032;2022-07-23T05:43:39;3.38;;;0.63;;
40449;SDS011;41787;53.570;10.032;2022-07-23T05:46:05;2.90;;;0.50;;
40449;SDS011;41787;53.570;10.032;2022-07-23T05:48:31;2.28;;;0.75;;
40449;SDS011;41787;53.570;10.032;2022-07-23T05:50:57;2.67;;;0.60;;
40449;SDS011;41787;53.570;10.032;2022-07-23T05:53:23;1.65;;;0.45;;
40449;SDS011;41787;53.570;10.032;2022-07-23T05:55:48;0.73;;;0.52;;
40449;SDS011;41787;53.570;10.032;2022-07-23T05:58:14;3.03;;;0.80;;
40449;SDS011;41787;53.570;10.032;2022-07-23T06:00:40;6.15;;;0.70;;
40449;SDS011;41787;53.570;10.032;2022-07-23T06:03:06;2.78;;;0.60;;
40449;SDS011;41787;53.570;10.032;2022-07-23T06:05:32;1.77;;;0.60;;
40449;SDS011;41787;53.570;10.032;2022-07-23T06:07:58;2.90;;;0.73;;
40449;SDS011;41787;53.570;10.032;2022-07-23T06:10:24;2.75;;;0.80;;
40449;SDS011;41787;53.570;10.032;2022-07-23T06:12:50;3.80;;;0.98;;
40449;SDS011;41787;53.570;10.032;2022-07-23T06:15:16;1.80;;;0.60;;
40449;SDS011;41787;53.570;10.032;2022-07-23T06:17:42;2.22;;;0.70;;
40449;SDS011;41787;53.570;10.032;2022-07-23T06:20:08;4.00;;;0.80;;
40449;SDS011;41787;53.570;10.032;2022-07-23T06:22:35;4.55;;;0.80;;
40449;SDS011;41787;53.570;10.032;2022-07-23T06:25:01;3.28;;;0.93;;
40449;SDS011;41787;53.570;10.032;2022-07-23T06:27:27;1.70;;;0.52;;
40449;SDS011;41787;53.570;10.032;2022-07-23T06:29:53;4.82;;;0.80;;
40449;SDS011;41787;53.570;10.032;2022-07-23T06:32:19;2.53;;;0.93;;
40449;SDS011;41787;53.570;10.032;2022-07-23T06:34:45;6.78;;;0.98;;
40449;SDS011;41787;53.570;10.032;2022-07-23T06:37:11;3.25;;;0.80;;
40449;SDS011;41787;53.570;10.032;2022-07-23T06:39:37;4.50;;;0.80;;
40449;SDS011;41787;53.570;10.032;2022-07-23T06:42:03;3.58;;;0.73;;
40449;SDS011;41787;53.570;10.032;2022-07-23T06:44:29;5.55;;;0.93;;
40449;SDS011;41787;53.570;10.032;2022-07-23T06:46:55;3.53;;;0.65;;
40449;SDS011;41787;53.570;10.032;2022-07-23T06:49:21;5.40;;;1.00;;
40449;SDS011;41787;53.570;10.032;2022-07-23T06:51:47;2.47;;;0.50;;
40449;SDS011;41787;53.570;10.032;2022-07-23T06:54:12;5.03;;;1.08;;
40449;SDS011;41787;53.570;10.032;2022-07-23T06:56:38;1.63;;;0.77;;
40449;SDS011;41787;53.570;10.032;2022-07-23T06:59:05;3.10;;;0.63;;
40449;SDS011;41787;53.570;10.032;2022-07-23T07:01:31;3.47;;;0.90;;
40449;SDS011;41787;53.570;10.032;2022-07-23T07:03:57;4.25;;;0.80;;
40449;SDS011;41787;53.570;10.032;2022-07-23T07:06:23;1.67;;;0.73;;
40449;SDS011;41787;53.570;10.032;2022-07-23T07:08:49;3.60;;;1.10;;
40449;SDS011;41787;53.570;10.032;2022-07-23T07:11:15;2.35;;;0.70;;
40449;SDS011;41787;53.570;10.032;2022-07-23T07:13:41;0.73;;;0.40;;
40449;SDS011;41787;53.570;10.032;2022-07-23T07:16:07;1.23;;;0.45;;
40449;SDS011;41787;53.570;10.032;2022-07-23T07:18:33;1.23;;;0.47;;
40449;SDS011;41787;53.570;10.032;2022-07-23T07:20:58;1.65;;;0.47;;
40449;SDS011;41787;53.570;10.032;2022-07-23T07:23:24;2.22;;;0.57;;
40449;SDS011;41787;53.570;10.032;2022-07-23T07:25:50;2.60;;;0.55;;
40449;SDS011;41787;53.570;10.032;2022-07-23T07:28:16;1.67;;;0.52;;
40449;SDS011;41787;53.570;10.032;2022-07-23T07:30:42;2.63;;;0.32;;
40449;SDS011;41787;53.570;10.032;2022-07-23T07:33:08;5.55;;;0.80;;
40449;SDS011;41787;53.570;10.032;2022-07-23T07:35:34;2.33;;;0.50;;
40449;SDS011;41787;53.570;10.032;2022-07-23T07:38:00;2.80;;;0.85;;
40449;SDS011;41787;53.570;10.032;2022-07-23T07:40:26;3.08;;;1.05;;
40449;SDS011;41787;53.570;10.032;2022-07-23T07:42:53;4.82;;;0.80;;
40449;SDS011;41787;53.570;10.032;2022-07-23T07:45:22;2.90;;;1.00;;
40449;SDS011;41787;53.570;10.032;2022-07-23T07:47:48;4.63;;;1.10;;
40449;SDS011;41787;53.570;10.032;2022-07-23T07:50:14;2.55;;;0.60;;
40449;SDS011;41787;53.570;10.032;2022-07-23T07:52:40;1.90;;;0.77;;
40449;SDS011;41787;53.570;10.032;2022-07-23T07:55:07;0.80;;;0.30;;
40449;SDS011;41787;53.570;10.032;2022-07-23T07:57:34;2.92;;;0.70;;
40449;SDS011;41787;53.570;10.032;2022-07-23T08:00:00;0.70;;;0.40;;
40449;SDS011;41787;53.570;10.032;2022-07-23T08:02:26;1.60;;;0.50;;
40449;SDS011;41787;53.570;10.032;2022-07-23T08:04:52;0.70;;;0.35;;
40449;SDS011;41787;53.570;10.032;2022-07-23T08:07:18;1.27;;;0.50;;
40449;SDS011;41787;53.570;10.032;2022-07-23T08:09:44;1.35;;;0.57;;
40449;SDS011;41787;53.570;10.032;2022-07-23T08:12:10;2.08;;;0.57;;
40449;SDS011;41787;53.570;10.032;2022-07-23T08:14:36;1.17;;;0.40;;
40449;SDS011;41787;53.570;10.032;2022-07-23T08:17:02;3.15;;;0.45;;
40449;SDS011;41787;53.570;10.032;2022-07-23T08:19:28;3.47;;;0.63;;
40449;SDS011;41787;53.570;10.032;2022-07-23T08:21:54;7.65;;;0.70;;
40449;SDS011;41787;53.570;10.032;2022-07-23T08:24:20;3.72;;;0.60;;
40449;SDS011;41787;53.570;10.032;2022-07-23T08:26:46;2.95;;;0.68;;
40449;SDS011;41787;53.570;10.032;2022-07-23T08:29:12;2.28;;;0.50;;
40449;SDS011;41787;53.570;10.032;2022-07-23T08:31:38;2.08;;;0.40;;
40449;SDS011;41787;53.570;10.032;2022-07-23T08:34:05;5.32;;;0.52;;
40449;SDS011;41787;53.570;10.032;2022-07-23T08:36:31;1.00;;;0.80;;
40449;SDS011;41787;53.570;10.032;2022-07-23T08:38:57;3.78;;;0.70;;
40449;SDS011;41787;53.570;10.032;2022-07-23T08:41:24;3.72;;;0.57;;
40449;SDS011;41787;53.570;10.032;2022-07-23T08:43:50;1.85;;;0.60;;
40449;SDS011;41787;53.570;10.032;2022-07-23T08:46:16;0.57;;;0.25;;
40449;SDS011;41787;53.570;10.032;2022-07-23T08:48:43;2.03;;;0.50;;
40449;SDS011;41787;53.570;10.032;2022-07-23T08:51:08;2.33;;;0.60;;
40449;SDS011;41787;53.570;10.032;2022-07-23T08:53:35;2.38;;;0.63;;
40449;SDS011;41787;53.570;10.032;2022-07-23T08:56:03;1.38;;;0.60;;
40449;SDS011;41787;53.570;10.032;2022-07-23T08:58:29;0.63;;;0.28;;
40449;SDS011;41787;53.570;10.032;2022-07-23T09:00:55;2.80;;;0.40;;
40449;SDS011;41787;53.570;10.032;2022-07-23T09:03:23;1.20;;;0.30;;
40449;SDS011;41787;53.570;10.032;2022-07-23T09:05:49;0.35;;;0.20;;
40449;SDS011;41787;53.570;10.032;2022-07-23T09:08:16;2.60;;;0.50;;
40449;SDS011;41787;53.570;10.032;2022-07-23T09:10:47;3.15;;;0.30;;
40449;SDS011;41787;53.570;10.032;2022-07-23T09:13:30;0.77;;;0.30;;
40449;SDS011;41787;53.570;10.032;2022-07-23T09:16:09;1.67;;;0.40;;
40449;SDS011;41787;53.570;10.032;2022-07-23T09:18:45;0.20;;;0.20;;
40449;SDS011;41787;53.570;10.032;2022-07-23T09:26:23;1.63;;;0.47;;
40449;SDS011;41787;53.570;10.032;2022-07-23T09:28:54;1.55;;;0.30;;
40449;SDS011;41787;53.570;10.032;2022-07-23T09:31:20;1.27;;;0.35;;
40449;SDS011;41787;53.570;10.032;2022-07-23T09:33:46;1.85;;;0.40;;
40449;SDS011;41787;53.570;10.032;2022-07-23T09:36:12;2.13;;;0.40;;
40449;SDS011;41787;53.570;10.032;2022-07-23T09:38:48;8.50;;;0.50;;
40449;SDS011;41787;53.570;10.032;2022-07-23T09:41:15;2.58;;;0.57;;
40449;SDS011;41787;53.570;10.032;2022-07-23T09:43:41;1.77;;;0.40;;
40449;SDS011;41787;53.570;10.032;2022-07-23T09:46:16;0.40;;;0.30;;
40449;SDS011;41787;53.570;10.032;2022-07-23T09:48:43;2.15;;;0.52;;
40449;SDS011;41787;53.570;10.032;2022-07-23T09:51:09;1.38;;;0.57;;
40449;SDS011;41787;53.570;10.032;2022-07-23T09:53:35;1.52;;;0.50;;
40449;SDS011;41787;53.570;10.032;2022-07-23T09:56:01;1.02;;;0.30;;
40449;SDS011;41787;53.570;10.032;2022-07-23T09:58:27;1.80;;;0.60;;
40449;SDS011;41787;53.570;10.032;2022-07-23T10:00:54;2.88;;;0.40;;
40449;SDS011;41787;53.570;10.032;2022-07-23T10:03:21;1.50;;;0.40;;
40449;SDS011;41787;53.570;10.032;2022-07-23T10:05:49;0.20;;;0.20;;
40449;SDS011;41787;53.570;10.032;2022-07-23T10:08:17;1.20;;;0.40;;
40449;SDS011;41787;53.570;10.032;2022-07-23T10:10:45;1.05;;;0.30;;
40449;SDS011;41787;53.570;10.032;2022-07-23T10:13:11;0.77;;;0.40;;
40449;SDS011;41787;53.570;10.032;2022-07-23T10:16:15;3.53;;;0.50;;
40449;SDS011;41787;53.570;10.032;2022-07-23T10:18:41;1.50;;;0.32;;
40449;SDS011;41787;53.570;10.032;2022-07-23T10:21:07;0.93;;;0.52;;
40449;SDS011;41787;53.570;10.032;2022-07-23T10:23:36;0.85;;;0.22;;
40449;SDS011;41787;53.570;10.032;2022-07-23T10:26:05;0.52;;;0.28;;
40449;SDS011;41787;53.570;10.032;2022-07-23T10:36:11;1.30;;;0.38;;
40449;SDS011;41787;53.570;10.032;2022-07-23T10:38:53;0.88;;;0.20;;
40449;SDS011;41787;53.570;10.032;2022-07-23T10:41:30;2.15;;;0.40;;
40449;SDS011;41787;53.570;10.032;2022-07-23T10:44:09;0.35;;;0.15;;
40449;SDS011;41787;53.570;10.032;2022-07-23T10:46:36;0.95;;;0.40;;
40449;SDS011;41787;53.570;10.032;2022-07-23T10:54:31;0.77;;;0.30;;
40449;SDS011;41787;53.570;10.032;2022-07-23T10:59:23;3.92;;;0.35;;
40449;SDS011;41787;53.570;10.032;2022-07-23T11:01:49;1.38;;;0.40;;
40449;SDS011;41787;53.570;10.032;2022-07-23T11:04:15;0.38;;;0.20;;
40449;SDS011;41787;53.570;10.032;2022-07-23T11:17:21;0.65;;;0.20;;
40449;SDS011;41787;53.570;10.032;2022-07-23T11:20:32;1.27;;;0.47;;
40449;SDS011;41787;53.570;10.032;2022-07-23T11:22:34;0.52;;;0.22;;
40449;SDS011;41787;53.570;10.032;2022-07-23T11:25:00;1.55;;;0.22;;
40449;SDS011;41787;53.570;10.032;2022-07-23T11:27:42;2.17;;;0.30;;
40449;SDS011;41787;53.570;10.032;2022-07-23T11:30:09;0.50;;;0.20;;
40449;SDS011;41787;53.570;10.032;2022-07-23T11:32:41;0.35;;;0.20;;
40449;SDS011;41787;53.570;10.032;2022-07-23T11:35:24;2.28;;;0.25;;
40449;SDS011;41787;53.570;10.032;2022-07-23T11:37:52;1.65;;;0.40;;
40449;SDS011;41787;53.570;10.032;2022-07-23T11:40:23;4.25;;;0.30;;
40449;SDS011;41787;53.570;10.032;2022-07-23T11:42:51;3.60;;;0.35;;
40449;SDS011;41787;53.570;10.032;2022-07-23T11:45:17;2.75;;;0.30;;
40449;SDS011;41787;53.570;10.032;2022-07-23T11:47:43;2.17;;;0.22;;
40449;SDS011;41787;53.570;10.032;2022-07-23T11:50:09;0.65;;;0.10;;
40449;SDS011;41787;53.570;10.032;2022-07-23T11:52:35;0.35;;;0.20;;
40449;SDS011;41787;53.570;10.032;2022-07-23T11:55:03;1.83;;;0.40;;
40449;SDS011;41787;53.570;10.032;2022-07-23T11:57:33;1.27;;;0.32;;
40449;SDS011;41787;53.570;10.032;2022-07-23T12:00:10;0.20;;;0.20;;
40449;SDS011;41787;53.570;10.032;2022-07-23T12:02:39;2.15;;;0.50;;
40449;SDS011;41787;53.570;10.032;2022-07-23T12:05:06;2.05;;;0.50;;
40449;SDS011;41787;53.570;10.032;2022-07-23T12:07:35;2.13;;;0.40;;
40449;SDS011;41787;53.570;10.032;2022-07-23T12:10:03;2.85;;;0.90;;
40449;SDS011;41787;53.570;10.032;2022-07-23T12:12:36;2.90;;;0.50;;
40449;SDS011;41787;53.570;10.032;2022-07-23T12:15:03;2.55;;;0.50;;
40449;SDS011;41787;53.570;10.032;2022-07-23T12:17:30;3.67;;;0.57;;
40449;SDS011;41787;53.570;10.032;2022-07-23T12:19:57;5.88;;;0.77;;
40449;SDS011;41787;53.570;10.032;2022-07-23T12:22:24;1.83;;;0.50;;
40449;SDS011;41787;53.570;10.032;2022-07-23T12:24:54;1.55;;;0.45;;
40449;SDS011;41787;53.570;10.032;2022-07-23T12:27:20;4.32;;;0.63;;
40449;SDS011;41787;53.570;10.032;2022-07-23T12:29:46;3.33;;;0.60;;
40449;SDS011;41787;53.570;10.032;2022-07-23T12:32:22;1.23;;;0.50;;
40449;SDS011;41787;53.570;10.032;2022-07-23T12:34:50;5.13;;;0.63;;
40449;SDS011;41787;53.570;10.032;2022-07-23T12:37:29;5.88;;;0.65;;
40449;SDS011;41787;53.570;10.032;2022-07-23T12:39:55;2.58;;;0.68;;
40449;SDS011;41787;53.570;10.032;2022-07-23T12:42:21;2.17;;;0.70;;
40449;SDS011;41787;53.570;10.032;2022-07-23T12:45:08;1.95;;;0.50;;
40449;SDS011;41787;53.570;10.032;2022-07-23T12:53:09;2.08;;;0.50;;
40449;SDS011;41787;53.570;10.032;2022-07-23T12:55:36;2.95;;;0.50;;
40449;SDS011;41787;53.570;10.032;2022-07-23T12:58:03;1.92;;;0.50;;
40449;SDS011;41787;53.570;10.032;2022-07-23T13:00:29;1.30;;;0.43;;
40449;SDS011;41787;53.570;10.032;2022-07-23T13:02:56;0.28;;;0.28;;
40449;SDS011;41787;53.570;10.032;2022-07-23T13:05:22;6.18;;;1.20;;
40449;SDS011;41787;53.570;10.032;2022-07-23T13:07:47;5.53;;;0.60;;
40449;SDS011;41787;53.570;10.032;2022-07-23T13:10:13;3.40;;;0.60;;
40449;SDS011;41787;53.570;10.032;2022-07-23T13:12:39;0.43;;;0.30;;
40449;SDS011;41787;53.570;10.032;2022-07-23T13:15:05;1.50;;;0.60;;
40449;SDS011;41787;53.570;10.032;2022-07-23T13:17:31;1.20;;;0.57;;
40449;SDS011;41787;53.570;10.032;2022-07-23T13:19:57;1.50;;;0.30;;
40449;SDS011;41787;53.570;10.032;2022-07-23T13:22:23;2.97;;;0.60;;
40449;SDS011;41787;53.570;10.032;2022-07-23T13:24:49;2.58;;;0.60;;
40449;SDS011;41787;53.570;10.032;2022-07-23T13:27:15;3.13;;;0.68;;
40449;SDS011;41787;53.570;10.032;2022-07-23T13:29:41;1.80;;;0.50;;
40449;SDS011;41787;53.570;10.032;2022-07-23T13:32:07;2.80;;;1.17;;
40449;SDS011;41787;53.570;10.032;2022-07-23T13:34:33;2.25;;;0.60;;
40449;SDS011;41787;53.570;10.032;2022-07-23T13:36:59;2.15;;;0.50;;
40449;SDS011;41787;53.570;10.032;2022-07-23T13:39:25;1.55;;;0.45;;
40449;SDS011;41787;53.570;10.032;2022-07-23T13:41:51;2.53;;;0.73;;
40449;SDS011;41787;53.570;10.032;2022-07-23T13:44:17;1.52;;;0.50;;
40449;SDS011;41787;53.570;10.032;2022-07-23T13:46:44;1.02;;;0.32;;
40449;SDS011;41787;53.570;10.032;2022-07-23T13:49:10;0.77;;;0.40;;
40449;SDS011;41787;53.570;10.032;2022-07-23T13:51:36;2.47;;;0.50;;
40449;SDS011;41787;53.570;10.032;2022-07-23T13:54:02;1.35;;;0.40;;
40449;SDS011;41787;53.570;10.032;2022-07-23T13:56:28;1.90;;;0.35;;
40449;SDS011;41787;53.570;10.032;2022-07-23T13:58:54;3.00;;;0.75;;
40449;SDS011;41787;53.570;10.032;2022-07-23T14:01:20;0.68;;;0.35;;
40449;SDS011;41787;53.570;10.032;2022-07-23T14:03:46;0.25;;;0.10;;
40449;SDS011;41787;53.570;10.032;2022-07-23T14:06:12;2.28;;;0.52;;
40449;SDS011;41787;53.570;10.032;2022-07-23T14:08:40;2.20;;;0.50;;
40449;SDS011;41787;53.570;10.032;2022-07-23T14:11:06;5.30;;;0.95;;
40449;SDS011;41787;53.570;10.032;2022-07-23T14:13:32;1.17;;;0.40;;
40449;SDS011;41787;53.570;10.032;2022-07-23T14:15:58;2.60;;;0.57;;
40449;SDS011;41787;53.570;10.032;2022-07-23T14:18:24;3.08;;;0.47;;
40449;SDS011;41787;53.570;10.032;2022-07-23T14:20:50;1.75;;;0.40;;
40449;SDS011;41787;53.570;10.032;2022-07-23T14:23:16;3.25;;;0.70;;
40449;SDS011;41787;53.570;10.032;2022-07-23T14:25:42;2.55;;;0.63;;
40449;SDS011;41787;53.570;10.032;2022-07-23T14:28:08;1.58;;;0.70;;
40449;SDS011;41787;53.570;10.032;2022-07-23T14:30:36;3.72;;;0.98;;
40449;SDS011;41787;53.570;10.032;2022-07-23T14:33:02;4.57;;;1.15;;
40449;SDS011;41787;53.570;10.032;2022-07-23T14:35:28;2.85;;;0.50;;
40449;SDS011;41787;53.570;10.032;2022-07-23T14:37:54;2.10;;;0.22;;
40449;SDS011;41787;53.570;10.032;2022-07-23T14:40:21;2.97;;;0.70;;
40449;SDS011;41787;53.570;10.032;2022-07-23T14:42:47;4.18;;;0.50;;
40449;SDS011;41787;53.570;10.032;2022-07-23T14:45:13;1.73;;;0.38;;
40449;SDS011;41787;53.570;10.032;2022-07-23T14:47:39;0.82;;;0.30;;
40449;SDS011;41787;53.570;10.032;2022-07-23T14:50:05;4.28;;;0.63;;
40449;SDS011;41787;53.570;10.032;2022-07-23T14:52:31;1.42;;;0.40;;
40449;SDS011;41787;53.570;10.032;2022-07-23T14:54:57;0.30;;;0.20;;
40449;SDS011;41787;53.570;10.032;2022-07-23T14:57:23;3.42;;;0.50;;
40449;SDS011;41787;53.570;10.032;2022-07-23T14:59:49;0.98;;;0.40;;
40449;SDS011;41787;53.570;10.032;2022-07-23T15:02:15;1.75;;;0.50;;
40449;SDS011;41787;53.570;10.032;2022-07-23T15:04:41;2.53;;;0.43;;
40449;SDS011;41787;53.570;10.032;2022-07-23T15:07:07;2.50;;;0.45;;
40449;SDS011;41787;53.570;10.032;2022-07-23T15:09:33;1.88;;;0.57;;